Airport View

Enter AWOS ICAO identifier for current METAR.

ex. KFNL

PAPN 111856Z AUTO 04014KT 9SM OVC030 04/03 A2901 RMK AO2 SLP825 T00390033 PWINO $

11 Dec 2019 19:04

Frequency: 118.375

Phone: 907-797-2296

Other Area AWOS: PAII - PAPH - PFWS - PAKN

TAF PAKN 111726Z 1118/1218 03015G25KT P6SM -RA BKN050 WS020/08045KT FM120300 03011KT P6SM FEW030 SCT060